Time;durP1;ratioP1;P1;durP2;ratioP2;P2;SDS_P1;SDS_P2;PMS_P1;PMS_P2;Temp;Humidity;BMP_temperature;BMP_pressure;BME280_temperature;BME280_humidity;BME280_pressure;Samples;Min_cycle;Max_cycle;Signal;HPM_P1;HPM_P2
2023/08/22 00:01:44;;;;;;;24.98;13.25;;;;;;;;;;5095419;28;20028;-82
2023/08/22 00:04:10;;;;;;;22.30;13.75;;;;;;;;;;5094528;28;20109;-79
2023/08/22 00:06:36;;;;;;;20.58;14.02;;;;;;;;;;5094955;28;20020;-81
2023/08/22 00:09:04;;;;;;;23.92;13.73;;;;;;;;;;5095492;28;20016;-81
2023/08/22 00:11:30;;;;;;;23.63;12.90;;;;;;;;;;5095118;28;20027;-80
2023/08/22 00:13:56;;;;;;;19.33;11.35;;;;;;;;;;5093791;28;20031;-79
2023/08/22 00:16:23;;;;;;;22.10;13.02;;;;;;;;;;5093840;28;20016;-82
2023/08/22 00:18:49;;;;;;;22.02;13.35;;;;;;;;;;5094608;28;20020;-80
2023/08/22 00:21:15;;;;;;;21.27;12.50;;;;;;;;;;5093690;28;20064;-81
2023/08/22 00:23:41;;;;;;;24.77;12.38;;;;;;;;;;5093472;28;20096;-80
2023/08/22 00:26:10;;;;;;;20.70;12.00;;;;;;;;;;5094411;28;20019;-80
2023/08/22 00:28:36;;;;;;;23.13;12.50;;;;;;;;;;5093589;28;20032;-79
2023/08/22 00:31:02;;;;;;;20.33;13.02;;;;;;;;;;5094813;28;20013;-81
2023/08/22 00:33:28;;;;;;;19.25;12.45;;;;;;;;;;5094674;28;20012;-80
2023/08/22 00:35:54;;;;;;;19.73;12.20;;;;;;;;;;5093603;28;20016;-80
2023/08/22 00:38:21;;;;;;;24.42;13.65;;;;;;;;;;5093305;28;20031;-81
2023/08/22 00:40:47;;;;;;;24.50;12.68;;;;;;;;;;5094723;28;20028;-80
2023/08/22 00:43:12;;;;;;;19.90;12.70;;;24.40;99.90;;;;;;5094592;28;20389;-81
2023/08/22 00:53:21;;;;;;;25.42;15.50;;;24.20;99.90;;;;;;5169382;27;20315;-81
2023/08/22 00:55:47;;;;;;;21.23;14.23;;;24.20;99.90;;;;;;5134043;27;20416;-81
2023/08/22 00:58:14;;;;;;;22.52;13.93;;;24.10;99.90;;;;;;5152569;27;20023;-81
2023/08/22 01:00:39;;;;;;;20.05;12.77;;;23.90;99.90;;;;;;5152524;27;20437;-83
2023/08/22 01:03:06;;;;;;;19.83;13.18;;;23.90;99.90;;;;;;5134216;27;20027;-83
2023/08/22 01:05:37;;;;;;;20.25;13.43;;;23.90;99.90;;;;;;5152555;27;20019;-83
2023/08/22 01:08:19;;;;;;;31.50;14.00;;;23.90;99.90;;;;;;5133868;27;20030;-83
2023/08/22 01:10:50;;;;;;;22.00;13.65;;;23.80;99.90;;;;;;5152707;27;20087;-83
2023/08/22 01:13:29;;;;;;;21.60;14.40;;;23.80;99.90;;;;;;5134064;27;20414;-83
2023/08/22 01:15:56;;;;;;;21.98;14.68;;;23.70;99.90;;;;;;5133687;27;20424;-82
2023/08/22 01:18:23;;;;;;;20.33;14.35;;;23.70;99.90;;;;;;5152319;27;20084;-81
2023/08/22 01:20:49;;;;;;;22.73;14.10;;;23.70;99.90;;;;;;5152307;27;20030;-83
2023/08/22 01:23:14;;;;;;;19.50;14.48;;;23.70;99.90;;;;;;5151624;27;20015;-81
2023/08/22 01:25:40;;;;;;;22.00;12.40;;;23.70;99.90;;;;;;5152639;27;20396;-81
2023/08/22 01:28:22;;;;;;;18.95;13.93;;;23.60;99.90;;;;;;5139536;27;20024;-81
2023/08/22 01:30:57;;;;;;;21.42;14.45;;;23.60;99.90;;;;;;5151995;27;20072;-82
2023/08/22 01:33:30;;;;;;;24.45;13.95;;;23.60;99.90;;;;;;5152175;27;20035;-81
2023/08/22 01:35:56;;;;;;;27.05;12.95;;;23.60;99.90;;;;;;5151959;27;20453;-81
2023/08/22 01:38:25;;;;;;;18.13;13.07;;;23.60;99.90;;;;;;5151923;27;20098;-81
2023/08/22 01:40:52;;;;;;;20.30;14.10;;;23.60;99.90;;;;;;5133497;27;20384;-81
2023/08/22 01:43:21;;;;;;;22.73;15.02;;;23.60;99.90;;;;;;5151717;27;20075;-80
2023/08/22 01:45:47;;;;;;;23.73;13.68;;;23.60;99.90;;;;;;5151989;27;20015;-83
2023/08/22 01:48:13;;;;;;;23.23;13.68;;;23.50;99.90;;;;;;5151602;27;20011;-81
2023/08/22 01:50:39;;;;;;;23.73;14.13;;;23.50;99.90;;;;;;5151812;27;20034;-83
2023/08/22 01:53:05;;;;;;;20.40;14.73;;;23.50;99.90;;;;;;5132685;27;20381;-81
2023/08/22 01:55:31;;;;;;;19.45;13.55;;;23.40;99.90;;;;;;5133354;27;20022;-82
2023/08/22 01:57:56;;;;;;;25.35;14.85;;;23.40;99.90;;;;;;5151294;27;20030;-81
2023/08/22 02:00:22;;;;;;;19.95;13.90;;;23.40;99.90;;;;;;5147185;27;20030;-82
2023/08/22 02:02:48;;;;;;;19.52;14.45;;;23.40;99.90;;;;;;5148650;27;20054;-81
2023/08/22 02:05:14;;;;;;;18.38;13.73;;;23.40;99.90;;;;;;5119038;27;20030;-83
2023/08/22 02:07:40;;;;;;;25.20;14.68;;;23.30;99.90;;;;;;5137839;27;20027;-82
2023/08/22 02:10:06;;;;;;;18.63;13.05;;;23.30;99.90;;;;;;5118974;27;20071;-82
2023/08/22 02:12:32;;;;;;;21.42;14.60;;;23.30;99.90;;;;;;5118879;27;20023;-82
2023/08/22 02:14:58;;;;;;;22.50;14.07;;;23.30;99.90;;;;;;5119025;27;20027;-82
2023/08/22 02:17:24;;;;;;;23.45;13.43;;;23.20;99.90;;;;;;5137203;27;20027;-82
2023/08/22 02:19:50;;;;;;;23.23;14.80;;;23.20;99.90;;;;;;5118746;27;20019;-82
2023/08/22 02:22:15;;;;;;;20.00;14.65;;;23.20;99.90;;;;;;5119043;27;20437;-82
2023/08/22 02:24:41;;;;;;;17.67;13.88;;;23.20;99.90;;;;;;5118596;27;20397;-83
2023/08/22 02:27:07;;;;;;;23.73;14.80;;;23.20;99.90;;;;;;5118863;27;20054;-80
2023/08/22 02:29:34;;;;;;;19.05;13.57;;;23.20;99.90;;;;;;5119159;27;20030;-82
2023/08/22 02:31:59;;;;;;;22.02;14.63;;;23.20;99.90;;;;;;5118414;27;20031;-82
2023/08/22 02:34:25;;;;;;;19.80;13.73;;;23.20;99.90;;;;;;5137259;27;20469;-80
2023/08/22 02:36:51;;;;;;;21.40;14.25;;;23.20;99.90;;;;;;5118668;27;20046;-80
2023/08/22 02:39:18;;;;;;;25.52;14.52;;;23.10;99.90;;;;;;5118441;27;20015;-80
2023/08/22 02:41:43;;;;;;;23.08;14.38;;;23.10;99.90;;;;;;5098291;28;20476;-83
2023/08/22 02:44:09;;;;;;;23.33;13.77;;;23.00;99.90;;;;;;5115446;27;20023;-80
2023/08/22 02:46:35;;;;;;;24.52;14.30;;;23.00;99.90;;;;;;5136672;27;20019;-80
2023/08/22 02:49:01;;;;;;;22.40;14.48;;;23.00;99.90;;;;;;5137201;27;20038;-82
2023/08/22 02:51:27;;;;;;;20.75;14.85;;;23.00;99.90;;;;;;5118007;27;20047;-81
2023/08/22 02:53:53;;;;;;;22.63;14.85;;;23.00;99.90;;;;;;5136627;27;20024;-80
2023/08/22 02:56:19;;;;;;;25.65;14.48;;;23.10;99.90;;;;;;5136649;27;20028;-80
2023/08/22 02:58:46;;;;;;;23.60;14.07;;;23.00;99.90;;;;;;5136504;27;20488;-80
2023/08/22 03:01:12;;;;;;;22.77;15.13;;;23.00;99.90;;;;;;5136210;27;20024;-81
2023/08/22 03:03:38;;;;;;;19.55;13.68;;;23.00;99.90;;;;;;5118060;27;20453;-80
2023/08/22 03:06:04;;;;;;;20.65;14.52;;;22.90;99.90;;;;;;5136591;27;20030;-81
2023/08/22 03:08:30;;;;;;;19.15;14.07;;;22.90;99.90;;;;;;5117718;27;20023;-80
2023/08/22 03:11:03;;;;;;;27.08;15.23;;;22.90;99.90;;;;;;5136408;27;20023;-82
2023/08/22 03:13:30;;;;;;;21.42;14.90;;;22.90;99.90;;;;;;5136084;27;20364;-79
2023/08/22 03:15:57;;;;;;;20.27;15.32;;;22.80;99.90;;;;;;5117010;27;20334;-81
2023/08/22 03:18:24;;;;;;;21.70;14.63;;;22.80;99.90;;;;;;5136316;27;20015;-82
2023/08/22 03:20:49;;;;;;;23.10;14.93;;;22.80;99.90;;;;;;5135944;27;20023;-80
2023/08/22 03:23:15;;;;;;;18.77;13.75;;;22.80;99.90;;;;;;5117827;27;20046;-80
2023/08/22 03:25:41;;;;;;;21.52;14.35;;;22.80;99.90;;;;;;5117701;27;20413;-82
2023/08/22 03:28:07;;;;;;;24.88;14.65;;;22.80;99.90;;;;;;5117310;27;20023;-80
2023/08/22 03:30:32;;;;;;;23.45;15.25;;;22.80;99.90;;;;;;5117723;27;20027;-80
2023/08/22 03:32:58;;;;;;;21.05;15.13;;;22.70;99.90;;;;;;5135711;27;20031;-82
2023/08/22 03:35:24;;;;;;;23.77;14.38;;;22.70;99.90;;;;;;5135315;27;20015;-82
2023/08/22 03:37:50;;;;;;;24.10;14.32;;;22.70;99.90;;;;;;5135987;27;20015;-82
2023/08/22 03:40:15;;;;;;;26.10;14.02;;;22.70;99.90;;;;;;5117536;27;20046;-82
2023/08/22 03:42:41;;;;;;;25.55;14.57;;;22.70;99.90;;;;;;5117053;27;20380;-81
2023/08/22 03:45:07;;;;;;;22.65;14.93;;;22.60;99.90;;;;;;5117409;27;20118;-81
2023/08/22 03:47:33;;;;;;;22.30;14.57;;;22.60;99.90;;;;;;5108836;28;20020;-82
2023/08/22 03:49:59;;;;;;;18.50;13.88;;;22.60;99.90;;;;;;5120099;27;20027;-82
2023/08/22 03:52:24;;;;;;;26.92;14.90;;;22.60;99.90;;;;;;5132756;27;20038;-82
2023/08/22 03:54:50;;;;;;;22.05;14.85;;;22.60;99.90;;;;;;5104225;27;20020;-83
2023/08/22 03:57:16;;;;;;;23.70;15.50;;;22.60;99.90;;;;;;5117054;27;20071;-84
2023/08/22 03:59:42;;;;;;;22.90;15.48;;;22.60;99.90;;;;;;5117259;27;20114;-84
2023/08/22 04:02:08;;;;;;;26.50;16.13;;;22.60;99.90;;;;;;5117117;27;20027;-82
2023/08/22 04:04:34;;;;;;;25.65;16.27;;;22.60;99.90;;;;;;5135034;27;20031;-85
2023/08/22 04:06:59;;;;;;;25.85;15.63;;;22.60;99.90;;;;;;5117271;27;20027;-81
2023/08/22 04:09:25;;;;;;;27.27;15.13;;;22.60;99.90;;;;;;5134199;27;20403;-85
2023/08/22 04:11:53;;;;;;;24.90;17.10;;;22.60;99.90;;;;;;5134799;27;20015;-82
2023/08/22 04:14:19;;;;;;;29.73;17.45;;;22.60;99.90;;;;;;5135198;27;20027;-81
2023/08/22 04:16:44;;;;;;;37.90;18.38;;;22.60;99.90;;;;;;5135340;27;20026;-81
2023/08/22 04:19:10;;;;;;;19.77;15.15;;;22.60;99.90;;;;;;5135080;27;20042;-80
2023/08/22 04:21:36;;;;;;;23.38;15.80;;;22.60;99.90;;;;;;5133963;27;20023;-84
2023/08/22 04:24:02;;;;;;;23.23;14.57;;;22.70;99.90;;;;;;5134920;27;20027;-82
2023/08/22 04:26:27;;;;;;;26.17;14.55;;;22.70;99.90;;;;;;5134737;27;20123;-82
2023/08/22 04:28:53;;;;;;;21.25;14.75;;;22.70;99.90;;;;;;5116917;27;20115;-84
2023/08/22 04:31:19;;;;;;;28.48;14.93;;;22.70;99.90;;;;;;5116934;27;20050;-82
2023/08/22 04:33:45;;;;;;;24.98;14.63;;;22.80;99.90;;;;;;5134681;27;20027;-87
2023/08/22 04:36:10;;;;;;;22.80;15.30;;;22.80;99.90;;;;;;5116712;27;20075;-82
2023/08/22 04:38:36;;;;;;;26.08;15.45;;;22.80;99.90;;;;;;5134580;27;20106;-84
2023/08/22 04:41:02;;;;;;;23.75;14.80;;;22.90;99.90;;;;;;5116555;28;20110;-81
2023/08/22 04:43:27;;;;;;;20.95;14.90;;;22.90;99.90;;;;;;5134943;27;20019;-82
2023/08/22 04:45:53;;;;;;;21.90;14.52;;;23.00;99.90;;;;;;5116110;27;20048;-85
2023/08/22 04:48:20;;;;;;;27.08;15.65;;;23.00;99.90;;;;;;5116317;28;20110;-82
2023/08/22 04:50:45;;;;;;;24.02;14.60;;;23.00;99.90;;;;;;5116511;28;20023;-80
2023/08/22 04:53:11;;;;;;;21.45;15.52;;;23.10;99.90;;;;;;5115740;28;20357;-83
2023/08/22 04:55:37;;;;;;;27.75;14.95;;;23.10;99.90;;;;;;5134596;28;20080;-83
2023/08/22 04:58:03;;;;;;;23.55;14.43;;;23.20;99.90;;;;;;5122579;27;20031;-81
2023/08/22 05:00:29;;;;;;;21.55;14.93;;;23.30;99.90;;;;;;5104936;28;20411;-82
2023/08/22 05:02:54;;;;;;;22.38;15.45;;;23.30;99.90;;;;;;5116349;28;20080;-82
2023/08/22 05:05:20;;;;;;;24.65;14.43;;;23.40;99.90;;;;;;5116328;28;20027;-83
2023/08/22 05:07:46;;;;;;;26.00;16.27;;;23.40;99.90;;;;;;5134820;27;20037;-81
2023/08/22 05:10:12;;;;;;;26.55;16.92;;;23.50;99.90;;;;;;5116197;28;20031;-83
2023/08/22 05:12:37;;;;;;;25.02;15.40;;;23.50;99.90;;;;;;5115729;28;20041;-82
2023/08/22 05:15:04;;;;;;;28.40;16.38;;;23.60;99.90;;;;;;5116070;28;20360;-83
2023/08/22 05:17:30;;;;;;;27.38;15.88;;;23.70;99.90;;;;;;5116285;28;20065;-81
2023/08/22 05:19:56;;;;;;;22.50;14.27;;;;;;;;;;5133993;27;20019;-81
2023/08/22 05:22:22;;;;;;;20.70;14.20;;;23.90;99.90;;;;;;5116078;28;20027;-81
2023/08/22 05:24:47;;;;;;;23.95;14.35;;;23.90;99.90;;;;;;5116016;28;20342;-82
2023/08/22 05:27:14;;;;;;;24.45;14.75;;;;;;;;;;5134119;27;20042;-81
2023/08/22 05:29:40;;;;;;;20.05;13.73;;;;;;;;;;5134491;27;20023;-83
2023/08/22 05:32:06;;;;;;;22.10;14.80;;;;;;;;;;5134024;28;20086;-81
2023/08/22 05:34:32;;;;;;;20.80;13.75;;;;;;;;;;5115717;28;20111;-81
2023/08/22 05:36:59;;;;;;;21.10;12.77;;;;;;;;;;5134128;28;20076;-82
2023/08/22 05:39:25;;;;;;;21.40;12.63;;;;;;;;;;5118608;27;20023;-83
2023/08/22 05:41:51;;;;;;;17.63;11.88;;;;;;;;;;5119587;27;20026;-81
2023/08/22 05:44:17;;;;;;;20.25;13.45;;;;;;;;;;5138245;27;20015;-80
2023/08/22 05:46:43;;;;;;;26.83;14.20;;;;;;;;;;5119882;27;20015;-80
2023/08/22 05:49:09;;;;;;;22.30;13.15;;;;;;;;;;5119385;27;20138;-79
2023/08/22 05:51:35;;;;;;;21.75;13.52;;;;;;;;;;5137597;27;20099;-80
2023/08/22 05:54:01;;;;;;;26.38;13.43;;;;;;;;;;5119591;27;20027;-80
2023/08/22 05:56:28;;;;;;;28.13;13.52;;;;;;;;;;5137630;27;20015;-81
2023/08/22 05:58:54;;;;;;;23.13;12.98;;;;;;;;;;5119537;27;20023;-80
2023/08/22 06:01:21;;;;;;;19.17;12.15;;;;;;;;;;5137872;27;20015;-80
2023/08/22 06:03:47;;;;;;;24.15;12.88;;;;;;;;;;5118983;27;20103;-79
2023/08/22 06:06:13;;;;;;;25.85;14.05;;;;;;;;;;5118959;27;20391;-80
2023/08/22 06:08:39;;;;;;;27.17;13.30;;;;;;;;;;5137377;27;20529;-82
2023/08/22 06:11:05;;;;;;;23.65;13.25;;;;;;;;;;5119067;27;20057;-78
2023/08/22 06:13:32;;;;;;;26.65;13.65;;;;;;;;;;5119106;27;20030;-80
2023/08/22 06:15:58;;;;;;;20.38;12.65;;;;;;;;;;5137030;27;20038;-79
2023/08/22 06:18:24;;;;;;;23.77;13.52;;;;;;;;;;5137594;27;20075;-81
2023/08/22 06:20:50;;;;;;;26.38;13.23;;;;;;;;;;5119325;27;20019;-81
2023/08/22 06:23:17;;;;;;;21.25;13.35;;;;;;;;;;5137252;27;20019;-81
2023/08/22 06:25:43;;;;;;;27.60;13.43;;;;;;;;;;5119070;27;20015;-80
2023/08/22 06:28:09;;;;;;;26.50;14.25;;;;;;;;;;5137346;27;20030;-80
2023/08/22 06:30:35;;;;;;;22.17;12.55;;;;;;;;;;5136942;27;20413;-80
2023/08/22 06:33:02;;;;;;;23.27;12.95;;;;;;;;;;5118618;27;20439;-82
2023/08/22 06:37:08;;;;;;;21.38;13.57;;;;;;;;;;5090893;27;20382;-79
2023/08/22 06:39:34;;;;;;;29.45;13.23;;;;;;;;;;5091432;28;20024;-79
2023/08/22 06:42:00;;;;;;;25.13;12.80;;;;;;;;;;5073083;28;20022;-80
2023/08/22 06:44:26;;;;;;;19.30;12.52;;;;;;;;;;5072827;28;20044;-78
2023/08/22 06:46:53;;;;;;;23.38;12.65;;;;;;;;;;5091195;28;20032;-78
2023/08/22 06:49:19;;;;;;;21.33;13.35;;;;;;;;;;5091048;28;20331;-80
2023/08/22 06:51:45;;;;;;;20.25;12.95;;;;;;;;;;5091042;28;20446;-80
2023/08/22 06:54:11;;;;;;;22.08;12.82;;;;;;;;;;5090993;28;20047;-80
2023/08/22 06:56:37;;;;;;;18.23;12.43;;;;;;;;;;5072792;28;20073;-79
2023/08/22 06:59:03;;;;;;;19.98;12.50;;;;;;;;;;5072519;28;20028;-78
2023/08/22 07:01:30;;;;;;;18.75;12.38;;;;;;;;;;5071848;28;20020;-78
2023/08/22 07:03:56;;;;;;;26.30;13.05;;;;;;;;;;5072639;28;20028;-79
2023/08/22 07:06:22;;;;;;;21.67;12.50;;;;;;;;;;5072250;28;20450;-80
2023/08/22 07:08:50;;;;;;;23.65;12.15;;;;;;;;;;5035370;28;20068;-80
2023/08/22 07:51:24;;;;;;;26.90;10.23;;;;;;;;;;5144894;27;20385;-82
2023/08/22 07:56:03;;;;;;;19.70;10.48;;;;;;;;;;5111431;27;20381;-83
2023/08/22 07:58:29;;;;;;;20.60;10.82;;;;;;;;;;5093673;28;20070;-83
2023/08/22 08:45:06;;;;;;;20.75;9.80;;;;;;;;;;5628413;23;20077;-83
2023/08/22 08:47:35;;;;;;;16.45;9.45;;;;;;;;;;5030851;28;20041;-83
2023/08/22 08:50:04;;;;;;;14.38;9.10;;;;;;;;;;5012654;28;20430;-80
2023/08/22 08:52:30;;;;;;;13.45;8.32;;;;;;;;;;5012484;28;20171;-81
2023/08/22 08:54:58;;;;;;;16.05;8.57;;;;;;;;;;5012511;28;20038;-81
2023/08/22 08:57:25;;;;;;;15.07;8.90;;;;;;;;;;5029949;28;20364;-81
2023/08/22 08:59:51;;;;;;;12.57;8.73;;;;;;;;;;5011996;28;20022;-81
2023/08/22 09:02:17;;;;;;;16.10;9.27;;;;;;;;;;5012386;28;20017;-81
2023/08/22 09:04:44;;;;;;;15.23;8.35;;;;;;;;;;5030327;28;20029;-81
2023/08/22 09:07:10;;;;;;;14.27;8.77;;;;;;;;;;5017577;28;20022;-81
2023/08/22 09:09:36;;;;;;;20.65;8.38;;;;;;;;;;5015942;28;20028;-82
2023/08/22 09:12:15;;;;;;;11.93;8.73;;;;;;;;;;4998869;28;20018;-82
2023/08/22 09:14:46;;;;;;;12.88;8.90;;;;;;;;;;4997677;28;20026;-88
2023/08/22 09:17:16;;;;;;;12.15;8.63;;;;;;;;;;4999334;28;20467;-87
2023/08/22 09:19:44;;;;;;;13.02;8.70;;;;;;;;;;5016354;28;20513;-83
2023/08/22 09:25:08;;;;;;;9.50;8.02;;;;;;;;;;5016435;28;20080;-80
2023/08/22 09:27:53;;;;;;;10.77;8.13;;;;;;;;;;4998534;28;20064;-83
2023/08/22 09:30:54;;;;;;;17.25;8.00;;;;;;;;;;4997737;28;20538;-81
2023/08/22 09:40:14;;;;;;;;;;;;;;;;;;;;;
2023/08/22 09:43:05;;;;;;;9.55;7.20;;;;;;;;;;4897913;29;20040;-83
2023/08/22 09:45:42;;;;;;;11.40;7.70;;;;;;;;;;4897813;29;20507;-82
2023/08/22 09:55:00;;;;;;;;;;;;;;;;;;;;;
2023/08/22 09:57:18;;;;;;;14.00;6.65;;;;;;;;;;4894550;29;20055;-83
2023/08/22 09:59:46;;;;;;;13.77;6.72;;;;;;;;;;4898113;29;20132;-84
2023/08/22 10:02:27;;;;;;;10.18;7.15;;;;;;;;;;4881688;29;20039;-83
2023/08/22 10:07:58;;;;;;;12.90;6.90;;;;;;;;;;4898058;29;19915;-82
2023/08/22 12:00:49;;;;;;;;;;;;;;;;;;;;;
2023/08/22 12:03:53;;;;;;;6.38;5.40;;;;;;;;;;5013546;28;20033;-84
2023/08/22 12:06:19;;;;;;;7.45;5.65;;;;;;;;;;5012692;28;20026;-84
2023/08/22 12:08:55;;;;;;;7.50;5.88;;;;;;;;;;5012395;28;20072;-83
2023/08/22 12:11:25;;;;;;;9.85;5.68;;;;;;;;;;5012670;28;20018;-83
2023/08/22 12:13:52;;;;;;;7.30;5.75;;;;;;;;;;5014052;28;20030;-83
2023/08/22 12:16:18;;;;;;;10.27;5.63;;;;;;;;;;5013231;28;20018;-83
2023/08/22 12:18:46;;;;;;;8.32;5.10;;;;;;;;;;5012551;28;20022;-83
2023/08/22 12:21:37;;;;;;;;;;;;;;;;;;;;;
2023/08/22 12:24:06;;;;;;;7.05;5.72;;;;;;;;;;5014018;28;20022;-84
2023/08/22 12:26:32;;;;;;;9.85;5.22;;;;;;;;;;5011125;28;20056;-83
2023/08/22 12:28:59;;;;;;;10.90;5.60;;;;;;;;;;5012151;28;20108;-82
2023/08/22 12:31:32;;;;;;;12.02;6.80;;;;;;;;;;5012452;28;20038;-83
2023/08/22 12:33:58;;;;;;;9.18;5.95;;;;;;;;;;5008912;28;20452;-82
2023/08/22 12:36:24;;;;;;;9.88;6.10;;;;;;;;;;5009157;28;20451;-83
2023/08/22 12:38:50;;;;;;;10.70;6.40;;;;;;;;;;5012379;28;20036;-82
2023/08/22 12:41:17;;;;;;;10.93;6.10;;;;;;;;;;5014771;28;20022;-83
2023/08/22 12:43:43;;;;;;;9.90;5.97;;;;;;;;;;5015757;28;20022;-83
2023/08/22 12:46:09;;;;;;;9.88;6.60;;;;;;;;;;5015702;28;20113;-82
2023/08/22 12:48:36;;;;;;;10.40;6.00;;;;;;;;;;5016306;28;20040;-84
2023/08/22 12:51:03;;;;;;;7.45;5.82;;;;;;;;;;5015692;28;20025;-83
2023/08/22 12:53:29;;;;;;;10.02;6.35;;;;;;;;;;5017091;28;20080;-84
2023/08/22 12:55:55;;;;;;;12.05;6.30;;;;;;;;;;5015424;28;20475;-83
2023/08/22 12:58:21;;;;;;;11.75;6.07;;;;;;;;;;5011951;28;20433;-82
2023/08/22 13:00:47;;;;;;;8.25;6.28;;;;;;;;;;4997296;28;20474;-83
2023/08/22 13:03:14;;;;;;;8.07;5.68;;;;;;;;;;4997321;28;20022;-84
2023/08/22 13:05:40;;;;;;;16.50;6.40;;;;;;;;;;4979342;28;20026;-84
2023/08/22 13:08:14;;;;;;;11.32;6.05;;;;;;;;;;4995844;28;20033;-83
2023/08/22 13:10:45;;;;;;;10.80;6.40;;;;;;;;;;4979060;28;20054;-84
2023/08/22 13:13:11;;;;;;;7.65;6.18;;;;;;;;;;4997346;28;20101;-83
2023/08/22 13:15:38;;;;;;;9.55;6.35;;;;;;;;;;4979486;28;20042;-83
2023/08/22 13:18:04;;;;;;;8.75;6.57;;;;;;;;;;4978870;28;20065;-83
2023/08/22 13:20:30;;;;;;;8.38;6.35;;;;;;;;;;4979275;28;20034;-82
2023/08/22 13:22:57;;;;;;;10.98;7.10;;;;;;;;;;4979469;28;20503;-81
2023/08/22 13:25:23;;;;;;;10.45;6.90;;;;;;;;;;4996559;28;20424;-84
2023/08/22 13:27:49;;;;;;;11.88;7.05;;;;;;;;;;4996615;28;20458;-84
2023/08/22 13:30:16;;;;;;;10.90;6.88;;;;;;;;;;4995535;28;20452;-85
2023/08/22 13:32:42;;;;;;;13.35;6.57;;;;;;;;;;4978641;28;20052;-82
2023/08/22 13:35:14;;;;;;;12.75;7.13;;;;;;;;;;4979149;28;20076;-83
2023/08/22 13:37:40;;;;;;;13.02;7.40;;;;;;;;;;4996861;28;20046;-82
2023/08/22 13:40:07;;;;;;;11.07;6.75;;;;;;;;;;4978721;28;20026;-83
2023/08/22 13:42:34;;;;;;;12.85;6.80;;;;;;;;;;4996421;28;20388;-84
2023/08/22 13:45:18;;;;;;;10.93;6.70;;;;;;;;;;4994890;28;20061;-83
2023/08/22 13:47:46;;;;;;;10.60;6.32;;;;;;;;;;4979141;28;20022;-85
2023/08/22 13:50:12;;;;;;;17.75;7.35;;;;;;;;;;4995091;28;20027;-83
2023/08/22 13:52:41;;;;;;;13.73;6.57;;;;;;;;;;4978424;28;20033;-85
2023/08/22 13:55:07;;;;;;;10.40;6.80;;;;;;;;;;4978443;28;20035;-82
2023/08/22 13:57:33;;;;;;;10.50;7.05;;;;;;;;;;5003235;28;20046;-82
2023/08/22 14:00:00;;;;;;;9.32;6.55;;;;;;;;;;5015520;28;20105;-82
2023/08/22 14:02:26;;;;;;;14.18;6.50;;;;;;;;;;5014548;28;20464;-82
2023/08/22 14:04:52;;;;;;;10.40;6.18;;;;;;;;;;5014507;28;20391;-83
2023/08/22 14:07:18;;;;;;;10.40;7.05;;;;;;;;;;5014162;28;20494;-81
2023/08/22 14:09:44;;;;;;;9.07;6.20;;;;;;;;;;5015711;28;20026;-82
2023/08/22 14:12:10;;;;;;;9.13;6.57;;;;;;;;;;5015907;28;20032;-83
2023/08/22 14:14:37;;;;;;;19.40;6.82;;;;;;;;;;5015162;28;20076;-83
2023/08/22 14:17:06;;;;;;;9.68;6.88;;;;;;;;;;5014117;28;20029;-83
2023/08/22 14:25:56;;;;;;;11.20;6.90;;;;;;;;;;4955047;29;20213;-83
2023/08/22 14:34:34;;;;;;;10.98;6.10;;;;;;;;;;4915812;29;20051;-83
2023/08/22 14:37:02;;;;;;;10.93;6.43;;;;;;;;;;4900378;29;20063;-83
2023/08/22 14:39:28;;;;;;;11.00;6.70;;;;;;;;;;4900361;29;20025;-83
2023/08/22 14:45:18;;;;;;;13.18;5.90;;;;;;;;;;4878710;29;20037;-85
2023/08/22 14:47:54;;;;;;;13.00;6.40;;;;;;;;;;4860251;29;20033;-84
2023/08/22 14:50:29;;;;;;;12.13;6.05;;;;;;;;;;4878217;29;20484;-85
2023/08/22 15:14:49;;;;;;;9.23;6.20;;;;;;;;;;4927025;29;20123;-85
2023/08/22 15:17:15;;;;;;;9.38;6.13;;;;;;;;;;4934332;29;20038;-86
2023/08/22 15:22:46;;;;;;;13.48;6.88;;;;;;;;;;4896720;29;20036;-86
2023/08/22 16:17:52;;;;;;;9.02;7.13;;;;;;;;;;1287036;26;20338;-84
2023/08/22 16:20:19;;;;;;;8.32;7.03;;;;;;;;;;4996640;28;20488;-84
2023/08/22 16:26:11;;;;;;;13.65;6.70;;;;;;;;;;4997379;28;20041;-85
2023/08/22 16:28:39;;;;;;;12.25;6.05;;;;;;;;;;4974437;28;20054;-83
2023/08/22 16:44:00;;;;;;;;;;;;;;;;;;;;;
2023/08/22 16:55:53;;;;;;;;;;;;;;;;;;;;;
2023/08/22 16:58:40;;;;;;;19.10;8.75;;;;;;;;;;4916379;29;20039;-85
2023/08/22 17:01:10;;;;;;;16.92;8.57;;;;;;;;;;4918349;29;20059;-83
2023/08/22 17:04:10;;;;;;;13.88;7.78;;;;;;;;;;4898526;29;20032;-84
2023/08/22 17:07:16;;;;;;;24.38;8.38;;;;;;;;;;4842779;29;20121;-86
2023/08/22 17:13:06;;;;;;;14.70;8.43;;;;;;;;;;4843357;29;20140;-85
2023/08/22 17:15:39;;;;;;;15.00;9.27;;;;;;;;;;4860953;29;20057;-87
2023/08/22 17:18:05;;;;;;;13.02;8.07;;;;;;;;;;4845802;29;20039;-81
2023/08/22 17:20:31;;;;;;;14.55;8.32;;;;;;;;;;4893261;29;20149;-78
2023/08/22 17:22:57;;;;;;;14.35;7.95;;;;;;;;;;4917613;29;20236;-80
2023/08/22 17:25:23;;;;;;;17.05;8.23;;;;;;;;;;4917834;29;20024;-78
2023/08/22 17:27:51;;;;;;;17.30;8.90;;;;;;;;;;4917280;29;20028;-81
2023/08/22 17:30:19;;;;;;;13.60;8.07;;;;;;;;;;4901622;29;20033;-83
2023/08/22 17:32:54;;;;;;;15.30;8.50;;;;;;;;;;4917661;29;20035;-80
2023/08/22 17:38:05;;;;;;;15.65;8.35;;;;;;;;;;4936399;29;20091;-79
2023/08/22 17:40:33;;;;;;;14.02;8.25;;;;;;;;;;4920482;29;20478;-80
2023/08/22 17:42:59;;;;;;;15.90;8.60;;;;;;;;;;4986747;28;20057;-79
2023/08/22 17:45:25;;;;;;;18.35;8.35;;;;;;;;;;4996402;28;20030;-80
2023/08/22 17:48:01;;;;;;;21.00;8.98;;;;;;;;;;4978892;28;20037;-82
2023/08/22 17:50:27;;;;;;;19.30;9.40;;;;;;;;;;4996117;28;20034;-79
2023/08/22 17:52:53;;;;;;;15.60;8.95;;;;;;;;;;4996328;28;20473;-79
2023/08/22 17:55:19;;;;;;;18.77;9.63;;;;;;;;;;4996143;28;20034;-79
2023/08/22 17:57:46;;;;;;;17.23;9.48;;;;;;;;;;4995941;28;20045;-79
2023/08/22 18:00:15;;;;;;;24.77;10.48;;;;;;;;;;4996127;28;20023;-78
2023/08/22 18:02:41;;;;;;;19.35;9.73;;;;;;;;;;4979035;28;20037;-79
2023/08/22 18:05:08;;;;;;;17.92;10.55;;;;;;;;;;4996302;28;20030;-79
2023/08/22 18:07:34;;;;;;;28.17;12.40;;;;;;;;;;4978874;28;20018;-79
2023/08/22 18:10:00;;;;;;;32.75;12.23;;;;;;;;;;4996190;28;20029;-79
2023/08/22 18:12:26;;;;;;;29.17;12.65;;;;;;;;;;4995862;28;20026;-79
2023/08/22 18:14:53;;;;;;;19.98;12.27;;;;;;;;;;4996086;28;20041;-79
2023/08/22 18:17:19;;;;;;;17.55;11.38;;;;;;;;;;4995945;28;20061;-79
2023/08/22 18:19:45;;;;;;;25.33;12.25;;;;;;;;;;4995308;28;20046;-79
2023/08/22 18:22:11;;;;;;;25.48;11.85;;;;;;;;;;4978481;28;20031;-79
2023/08/22 18:24:37;;;;;;;31.45;11.70;;;;;;;;;;4995616;28;20396;-79
2023/08/22 18:27:03;;;;;;;24.98;11.98;;;;;;;;;;4995602;28;20105;-79
2023/08/22 18:29:30;;;;;;;20.13;11.88;;;;;;;;;;4995897;28;20036;-79
2023/08/22 18:31:56;;;;;;;27.45;12.18;;;;;;;;;;4995811;28;20452;-79
2023/08/22 18:34:23;;;;;;;22.30;11.10;;;;;;;;;;4995329;28;20030;-79
2023/08/22 18:36:49;;;;;;;24.92;10.32;;;;;;;;;;4995375;28;20022;-78
2023/08/22 18:39:15;;;;;;;27.20;11.15;;;;;;;;;;4994140;28;20424;-78
2023/08/22 18:41:41;;;;;;;22.52;11.35;;;;;;;;;;4995371;28;20018;-79
2023/08/22 18:44:07;;;;;;;16.40;10.85;;;;;;;;;;4977990;28;20037;-79
2023/08/22 18:46:33;;;;;;;18.70;10.63;;;;;;;;;;4995105;28;20057;-80
2023/08/22 18:49:00;;;;;;;27.77;12.25;;;;;;;;;;4995311;28;20380;-80
2023/08/22 18:51:28;;;;;;;18.13;11.43;;;;;;;;;;4977708;28;20042;-80
2023/08/22 18:56:31;;;;;;;25.17;11.95;;;;;;;;;;5153493;23;20058;-83
2023/08/22 18:59:00;;;;;;;22.00;11.93;;;;;;;;;;4977854;28;20467;-81
2023/08/22 19:01:26;;;;;;;24.88;12.15;;;;;;;;;;4977816;28;20100;-80
2023/08/22 19:04:21;;;;;;;20.15;12.10;;;;;;;;;;4995171;28;20040;-90
2023/08/22 19:06:48;;;;;;;23.63;12.45;;;;;;;;;;4919300;29;20047;-83
2023/08/22 19:09:14;;;;;;;28.33;12.30;;;;;;;;;;4912086;29;20028;-83
2023/08/22 19:11:40;;;;;;;30.13;13.50;;;;;;;;;;4899742;29;20037;-84
2023/08/22 19:14:06;;;;;;;27.42;13.18;;;;;;;;;;4899778;29;20112;-84
2023/08/22 19:16:34;;;;;;;22.92;12.75;;;;;;;;;;4908591;29;20530;-83
2023/08/22 19:19:00;;;;;;;24.13;13.80;;;;;;;;;;4897797;29;20047;-84
2023/08/22 19:21:26;;;;;;;34.72;15.10;;;;;;;;;;4899554;29;20035;-84
2023/08/22 19:23:52;;;;;;;28.20;15.13;;;;;;;;;;4899124;29;20040;-83
2023/08/22 19:26:18;;;;;;;33.00;15.65;;;;;;;;;;4899365;29;20478;-83
2023/08/22 19:28:44;;;;;;;24.30;14.90;;;;;;;;;;4915417;29;20034;-84
2023/08/22 19:31:10;;;;;;;34.25;14.40;;;;;;;;;;4915025;29;20079;-85
2023/08/22 19:33:43;;;;;;;30.80;17.15;;;;;;;;;;4915528;29;20064;-84
2023/08/22 19:36:09;;;;;;;31.77;14.93;;;;;;;;;;4899519;29;20135;-84
2023/08/22 19:38:35;;;;;;;27.40;15.50;;;;;;;;;;4899040;29;20508;-84
2023/08/22 19:41:01;;;;;;;31.45;16.02;;;;;;;;;;4899219;29;20028;-83
2023/08/22 19:43:27;;;;;;;32.05;15.52;;;;;;;;;;4947807;28;20121;-85